sensor_id;sensor_type;location;lat;lon;timestamp;P1;durP1;ratioP1;P2;durP2;ratioP2
1649;SDS011;822;53.670;8.676;2022-07-22T00:00:51;3.43;;;2.20;;
1649;SDS011;822;53.670;8.676;2022-07-22T00:03:18;2.70;;;2.43;;
1649;SDS011;822;53.670;8.676;2022-07-22T00:05:45;10.37;;;3.23;;
1649;SDS011;822;53.670;8.676;2022-07-22T00:08:11;5.13;;;3.10;;
1649;SDS011;822;53.670;8.676;2022-07-22T00:10:40;4.60;;;2.50;;
1649;SDS011;822;53.670;8.676;2022-07-22T00:13:10;8.37;;;3.10;;
1649;SDS011;822;53.670;8.676;2022-07-22T00:15:41;4.30;;;3.17;;
1649;SDS011;822;53.670;8.676;2022-07-22T00:18:08;6.70;;;2.70;;
1649;SDS011;822;53.670;8.676;2022-07-22T00:20:36;5.77;;;3.50;;
1649;SDS011;822;53.670;8.676;2022-07-22T00:23:02;12.43;;;4.10;;
1649;SDS011;822;53.670;8.676;2022-07-22T00:25:29;7.00;;;3.70;;
1649;SDS011;822;53.670;8.676;2022-07-22T00:27:56;4.90;;;3.00;;
1649;SDS011;822;53.670;8.676;2022-07-22T00:30:24;6.03;;;3.27;;
1649;SDS011;822;53.670;8.676;2022-07-22T00:32:52;7.23;;;3.73;;
1649;SDS011;822;53.670;8.676;2022-07-22T00:35:18;10.80;;;3.60;;
1649;SDS011;822;53.670;8.676;2022-07-22T00:37:45;5.07;;;3.77;;
1649;SDS011;822;53.670;8.676;2022-07-22T00:40:12;5.90;;;3.37;;
1649;SDS011;822;53.670;8.676;2022-07-22T00:42:39;6.93;;;3.90;;
1649;SDS011;822;53.670;8.676;2022-07-22T00:45:07;7.77;;;4.30;;
1649;SDS011;822;53.670;8.676;2022-07-22T00:47:35;5.90;;;4.00;;
1649;SDS011;822;53.670;8.676;2022-07-22T00:50:02;8.23;;;4.60;;
1649;SDS011;822;53.670;8.676;2022-07-22T00:52:30;7.60;;;4.50;;
1649;SDS011;822;53.670;8.676;2022-07-22T00:54:57;15.03;;;4.60;;
1649;SDS011;822;53.670;8.676;2022-07-22T00:57:25;13.60;;;4.63;;
1649;SDS011;822;53.670;8.676;2022-07-22T00:59:52;5.73;;;4.30;;
1649;SDS011;822;53.670;8.676;2022-07-22T01:02:18;10.00;;;4.10;;
1649;SDS011;822;53.670;8.676;2022-07-22T01:04:47;9.17;;;3.80;;
1649;SDS011;822;53.670;8.676;2022-07-22T01:07:14;7.87;;;3.33;;
1649;SDS011;822;53.670;8.676;2022-07-22T01:09:42;5.77;;;3.50;;
1649;SDS011;822;53.670;8.676;2022-07-22T01:12:10;6.43;;;3.00;;
1649;SDS011;822;53.670;8.676;2022-07-22T01:14:38;9.10;;;4.00;;
1649;SDS011;822;53.670;8.676;2022-07-22T01:17:05;4.77;;;3.33;;
1649;SDS011;822;53.670;8.676;2022-07-22T01:19:31;4.63;;;3.37;;
1649;SDS011;822;53.670;8.676;2022-07-22T01:22:00;7.20;;;3.47;;
1649;SDS011;822;53.670;8.676;2022-07-22T01:24:27;5.10;;;3.03;;
1649;SDS011;822;53.670;8.676;2022-07-22T01:26:54;6.93;;;3.20;;
1649;SDS011;822;53.670;8.676;2022-07-22T01:29:20;7.00;;;3.10;;
1649;SDS011;822;53.670;8.676;2022-07-22T01:31:47;8.23;;;3.90;;
1649;SDS011;822;53.670;8.676;2022-07-22T01:34:14;7.30;;;3.60;;
1649;SDS011;822;53.670;8.676;2022-07-22T01:36:41;7.17;;;3.83;;
1649;SDS011;822;53.670;8.676;2022-07-22T01:39:09;4.60;;;3.47;;
1649;SDS011;822;53.670;8.676;2022-07-22T01:41:36;8.53;;;4.10;;
1649;SDS011;822;53.670;8.676;2022-07-22T01:44:03;6.63;;;4.33;;
1649;SDS011;822;53.670;8.676;2022-07-22T01:46:30;9.00;;;4.60;;
1649;SDS011;822;53.670;8.676;2022-07-22T01:48:57;7.17;;;4.50;;
1649;SDS011;822;53.670;8.676;2022-07-22T01:51:25;8.60;;;4.70;;
1649;SDS011;822;53.670;8.676;2022-07-22T01:53:52;8.40;;;4.20;;
1649;SDS011;822;53.670;8.676;2022-07-22T01:56:23;6.33;;;3.77;;
1649;SDS011;822;53.670;8.676;2022-07-22T01:58:50;10.90;;;4.40;;
1649;SDS011;822;53.670;8.676;2022-07-22T02:01:17;6.50;;;3.97;;
1649;SDS011;822;53.670;8.676;2022-07-22T02:03:44;9.27;;;4.03;;
1649;SDS011;822;53.670;8.676;2022-07-22T02:06:11;7.97;;;3.40;;
1649;SDS011;822;53.670;8.676;2022-07-22T02:08:38;9.30;;;4.40;;
1649;SDS011;822;53.670;8.676;2022-07-22T02:11:04;10.97;;;4.90;;
1649;SDS011;822;53.670;8.676;2022-07-22T02:13:33;9.77;;;5.20;;
1649;SDS011;822;53.670;8.676;2022-07-22T02:16:00;11.27;;;6.20;;
1649;SDS011;822;53.670;8.676;2022-07-22T02:18:27;7.97;;;5.37;;
1649;SDS011;822;53.670;8.676;2022-07-22T02:20:54;10.80;;;5.43;;
1649;SDS011;822;53.670;8.676;2022-07-22T02:23:21;11.10;;;5.30;;
1649;SDS011;822;53.670;8.676;2022-07-22T02:25:48;5.77;;;5.00;;
1649;SDS011;822;53.670;8.676;2022-07-22T02:28:15;12.07;;;4.90;;
1649;SDS011;822;53.670;8.676;2022-07-22T02:30:43;10.63;;;5.57;;
1649;SDS011;822;53.670;8.676;2022-07-22T02:33:10;8.80;;;5.40;;
1649;SDS011;822;53.670;8.676;2022-07-22T02:35:37;11.17;;;5.60;;
1649;SDS011;822;53.670;8.676;2022-07-22T02:38:04;9.83;;;4.60;;
1649;SDS011;822;53.670;8.676;2022-07-22T02:40:31;7.83;;;4.70;;
1649;SDS011;822;53.670;8.676;2022-07-22T02:42:58;6.90;;;4.70;;
1649;SDS011;822;53.670;8.676;2022-07-22T02:45:25;9.73;;;4.40;;
1649;SDS011;822;53.670;8.676;2022-07-22T02:47:54;7.73;;;4.43;;
1649;SDS011;822;53.670;8.676;2022-07-22T02:50:22;9.37;;;5.13;;
1649;SDS011;822;53.670;8.676;2022-07-22T02:52:49;8.20;;;4.70;;
1649;SDS011;822;53.670;8.676;2022-07-22T02:55:17;7.97;;;5.37;;
1649;SDS011;822;53.670;8.676;2022-07-22T02:57:43;10.50;;;4.77;;
1649;SDS011;822;53.670;8.676;2022-07-22T03:00:11;9.20;;;4.50;;
1649;SDS011;822;53.670;8.676;2022-07-22T03:02:38;7.43;;;4.33;;
1649;SDS011;822;53.670;8.676;2022-07-22T03:05:08;9.47;;;4.63;;
1649;SDS011;822;53.670;8.676;2022-07-22T03:07:35;11.57;;;4.17;;
1649;SDS011;822;53.670;8.676;2022-07-22T03:10:02;8.67;;;4.73;;
1649;SDS011;822;53.670;8.676;2022-07-22T03:12:30;8.20;;;5.07;;
1649;SDS011;822;53.670;8.676;2022-07-22T03:14:57;10.67;;;4.70;;
1649;SDS011;822;53.670;8.676;2022-07-22T03:17:24;9.03;;;4.37;;
1649;SDS011;822;53.670;8.676;2022-07-22T03:19:51;7.50;;;4.50;;
1649;SDS011;822;53.670;8.676;2022-07-22T03:22:19;8.00;;;5.20;;
1649;SDS011;822;53.670;8.676;2022-07-22T03:24:46;12.40;;;5.60;;
1649;SDS011;822;53.670;8.676;2022-07-22T03:27:14;6.73;;;4.50;;
1649;SDS011;822;53.670;8.676;2022-07-22T03:29:40;15.03;;;5.30;;
1649;SDS011;822;53.670;8.676;2022-07-22T03:32:07;10.53;;;5.07;;
1649;SDS011;822;53.670;8.676;2022-07-22T03:34:34;8.33;;;5.73;;
1649;SDS011;822;53.670;8.676;2022-07-22T03:37:01;17.70;;;5.97;;
1649;SDS011;822;53.670;8.676;2022-07-22T03:39:30;9.13;;;5.40;;
1649;SDS011;822;53.670;8.676;2022-07-22T03:41:57;12.17;;;5.80;;
1649;SDS011;822;53.670;8.676;2022-07-22T03:44:24;11.70;;;5.57;;
1649;SDS011;822;53.670;8.676;2022-07-22T03:46:51;11.30;;;5.67;;
1649;SDS011;822;53.670;8.676;2022-07-22T03:49:18;8.03;;;5.70;;
1649;SDS011;822;53.670;8.676;2022-07-22T03:51:45;20.93;;;6.67;;
1649;SDS011;822;53.670;8.676;2022-07-22T03:54:12;18.93;;;6.40;;
1649;SDS011;822;53.670;8.676;2022-07-22T03:56:40;13.43;;;5.93;;
1649;SDS011;822;53.670;8.676;2022-07-22T03:59:07;13.20;;;5.60;;
1649;SDS011;822;53.670;8.676;2022-07-22T04:01:34;12.60;;;6.00;;
1649;SDS011;822;53.670;8.676;2022-07-22T04:04:01;15.23;;;6.40;;
1649;SDS011;822;53.670;8.676;2022-07-22T04:06:28;12.03;;;5.83;;
1649;SDS011;822;53.670;8.676;2022-07-22T04:08:55;11.13;;;6.60;;
1649;SDS011;822;53.670;8.676;2022-07-22T04:11:21;12.30;;;5.23;;
1649;SDS011;822;53.670;8.676;2022-07-22T04:13:50;18.10;;;5.90;;
1649;SDS011;822;53.670;8.676;2022-07-22T04:16:17;13.50;;;5.43;;
1649;SDS011;822;53.670;8.676;2022-07-22T04:18:44;17.50;;;5.80;;
1649;SDS011;822;53.670;8.676;2022-07-22T04:21:11;14.43;;;5.57;;
1649;SDS011;822;53.670;8.676;2022-07-22T04:23:37;11.53;;;5.20;;
1649;SDS011;822;53.670;8.676;2022-07-22T04:26:06;15.93;;;6.07;;
1649;SDS011;822;53.670;8.676;2022-07-22T04:28:33;16.70;;;5.87;;
1649;SDS011;822;53.670;8.676;2022-07-22T04:31:01;13.90;;;5.60;;
1649;SDS011;822;53.670;8.676;2022-07-22T04:33:29;14.03;;;5.90;;
1649;SDS011;822;53.670;8.676;2022-07-22T04:35:55;18.87;;;6.10;;
1649;SDS011;822;53.670;8.676;2022-07-22T04:38:22;12.60;;;5.33;;
1649;SDS011;822;53.670;8.676;2022-07-22T04:40:49;9.57;;;4.70;;
1649;SDS011;822;53.670;8.676;2022-07-22T04:43:17;12.17;;;6.10;;
1649;SDS011;822;53.670;8.676;2022-07-22T04:45:44;9.90;;;5.00;;
1649;SDS011;822;53.670;8.676;2022-07-22T04:48:12;11.13;;;5.63;;
1649;SDS011;822;53.670;8.676;2022-07-22T04:50:39;10.90;;;5.00;;
1649;SDS011;822;53.670;8.676;2022-07-22T04:53:06;9.07;;;4.63;;
1649;SDS011;822;53.670;8.676;2022-07-22T04:55:32;12.10;;;5.00;;
1649;SDS011;822;53.670;8.676;2022-07-22T04:58:00;12.47;;;4.37;;
1649;SDS011;822;53.670;8.676;2022-07-22T05:00:27;22.00;;;5.80;;
1649;SDS011;822;53.670;8.676;2022-07-22T05:02:54;11.20;;;5.27;;
1649;SDS011;822;53.670;8.676;2022-07-22T05:05:22;11.03;;;4.90;;
1649;SDS011;822;53.670;8.676;2022-07-22T05:07:50;10.27;;;5.63;;
1649;SDS011;822;53.670;8.676;2022-07-22T05:10:17;13.23;;;5.50;;
1649;SDS011;822;53.670;8.676;2022-07-22T05:12:44;10.40;;;4.80;;
1649;SDS011;822;53.670;8.676;2022-07-22T05:15:11;9.17;;;4.80;;
1649;SDS011;822;53.670;8.676;2022-07-22T05:17:39;11.00;;;4.83;;
1649;SDS011;822;53.670;8.676;2022-07-22T05:20:26;9.77;;;5.43;;
1649;SDS011;822;53.670;8.676;2022-07-22T05:22:56;11.07;;;4.73;;
1649;SDS011;822;53.670;8.676;2022-07-22T05:25:24;11.70;;;4.77;;
1649;SDS011;822;53.670;8.676;2022-07-22T05:27:55;11.47;;;4.10;;
1649;SDS011;822;53.670;8.676;2022-07-22T05:30:23;9.30;;;4.67;;
1649;SDS011;822;53.670;8.676;2022-07-22T05:32:50;10.30;;;4.50;;
1649;SDS011;822;53.670;8.676;2022-07-22T05:35:17;12.17;;;4.23;;
1649;SDS011;822;53.670;8.676;2022-07-22T05:37:45;7.30;;;3.47;;
1649;SDS011;822;53.670;8.676;2022-07-22T05:40:13;6.97;;;3.40;;
1649;SDS011;822;53.670;8.676;2022-07-22T05:42:40;8.23;;;4.20;;
1649;SDS011;822;53.670;8.676;2022-07-22T05:45:07;8.60;;;4.20;;
1649;SDS011;822;53.670;8.676;2022-07-22T05:47:36;8.50;;;4.13;;
1649;SDS011;822;53.670;8.676;2022-07-22T05:50:03;8.67;;;4.10;;
1649;SDS011;822;53.670;8.676;2022-07-22T05:52:31;9.50;;;3.80;;
1649;SDS011;822;53.670;8.676;2022-07-22T05:55:00;4.80;;;3.10;;
1649;SDS011;822;53.670;8.676;2022-07-22T05:57:27;7.10;;;4.30;;
1649;SDS011;822;53.670;8.676;2022-07-22T05:59:54;7.83;;;3.57;;
1649;SDS011;822;53.670;8.676;2022-07-22T06:02:21;8.80;;;3.60;;
1649;SDS011;822;53.670;8.676;2022-07-22T06:04:49;11.87;;;3.87;;
1649;SDS011;822;53.670;8.676;2022-07-22T06:07:17;9.10;;;3.77;;
1649;SDS011;822;53.670;8.676;2022-07-22T06:09:44;8.87;;;4.30;;
1649;SDS011;822;53.670;8.676;2022-07-22T06:12:13;6.73;;;3.10;;
1649;SDS011;822;53.670;8.676;2022-07-22T06:14:40;7.90;;;3.80;;
1649;SDS011;822;53.670;8.676;2022-07-22T06:17:08;5.67;;;3.33;;
1649;SDS011;822;53.670;8.676;2022-07-22T06:19:38;8.10;;;3.90;;
1649;SDS011;822;53.670;8.676;2022-07-22T06:22:09;6.93;;;2.93;;
1649;SDS011;822;53.670;8.676;2022-07-22T06:24:36;6.80;;;3.07;;
1649;SDS011;822;53.670;8.676;2022-07-22T06:27:04;4.20;;;2.80;;
1649;SDS011;822;53.670;8.676;2022-07-22T06:29:35;6.80;;;3.30;;
1649;SDS011;822;53.670;8.676;2022-07-22T06:32:02;4.87;;;3.03;;
1649;SDS011;822;53.670;8.676;2022-07-22T06:34:30;6.80;;;3.00;;
1649;SDS011;822;53.670;8.676;2022-07-22T06:37:03;6.03;;;3.00;;
1649;SDS011;822;53.670;8.676;2022-07-22T06:39:30;6.50;;;3.20;;
1649;SDS011;822;53.670;8.676;2022-07-22T06:41:57;4.00;;;2.70;;
1649;SDS011;822;53.670;8.676;2022-07-22T06:44:24;4.30;;;2.80;;
1649;SDS011;822;53.670;8.676;2022-07-22T06:46:52;5.67;;;2.83;;
1649;SDS011;822;53.670;8.676;2022-07-22T06:49:19;6.90;;;3.07;;
1649;SDS011;822;53.670;8.676;2022-07-22T06:51:45;13.20;;;3.47;;
1649;SDS011;822;53.670;8.676;2022-07-22T06:54:12;8.77;;;3.30;;
1649;SDS011;822;53.670;8.676;2022-07-22T06:56:39;7.20;;;2.87;;
1649;SDS011;822;53.670;8.676;2022-07-22T06:59:06;6.37;;;3.07;;
1649;SDS011;822;53.670;8.676;2022-07-22T07:01:33;7.70;;;2.53;;
1649;SDS011;822;53.670;8.676;2022-07-22T07:04:01;5.53;;;2.77;;
1649;SDS011;822;53.670;8.676;2022-07-22T07:06:28;7.30;;;3.23;;
1649;SDS011;822;53.670;8.676;2022-07-22T07:08:55;6.00;;;3.20;;
1649;SDS011;822;53.670;8.676;2022-07-22T07:11:23;6.63;;;2.70;;
1649;SDS011;822;53.670;8.676;2022-07-22T07:13:50;4.30;;;2.30;;
1649;SDS011;822;53.670;8.676;2022-07-22T07:16:16;6.67;;;3.20;;
1649;SDS011;822;53.670;8.676;2022-07-22T07:18:43;5.80;;;2.90;;
1649;SDS011;822;53.670;8.676;2022-07-22T07:21:12;5.73;;;3.43;;
1649;SDS011;822;53.670;8.676;2022-07-22T07:23:42;4.83;;;2.70;;
1649;SDS011;822;53.670;8.676;2022-07-22T07:26:08;7.30;;;2.40;;
1649;SDS011;822;53.670;8.676;2022-07-22T07:28:35;4.57;;;2.60;;
1649;SDS011;822;53.670;8.676;2022-07-22T07:31:02;3.57;;;2.40;;
1649;SDS011;822;53.670;8.676;2022-07-22T07:33:30;5.00;;;2.77;;
1649;SDS011;822;53.670;8.676;2022-07-22T07:35:57;3.77;;;3.10;;
1649;SDS011;822;53.670;8.676;2022-07-22T07:38:25;5.90;;;2.90;;
1649;SDS011;822;53.670;8.676;2022-07-22T07:40:52;5.33;;;2.73;;
1649;SDS011;822;53.670;8.676;2022-07-22T07:43:19;4.90;;;2.70;;
1649;SDS011;822;53.670;8.676;2022-07-22T07:45:46;5.73;;;2.60;;
1649;SDS011;822;53.670;8.676;2022-07-22T07:48:13;4.60;;;2.60;;
1649;SDS011;822;53.670;8.676;2022-07-22T07:50:40;5.53;;;2.60;;
1649;SDS011;822;53.670;8.676;2022-07-22T07:53:07;6.57;;;2.80;;
1649;SDS011;822;53.670;8.676;2022-07-22T07:55:36;5.27;;;2.80;;
1649;SDS011;822;53.670;8.676;2022-07-22T07:58:06;4.47;;;2.63;;
1649;SDS011;822;53.670;8.676;2022-07-22T08:00:35;4.33;;;2.77;;
1649;SDS011;822;53.670;8.676;2022-07-22T08:03:04;3.50;;;2.10;;
1649;SDS011;822;53.670;8.676;2022-07-22T08:05:31;8.03;;;3.07;;
1649;SDS011;822;53.670;8.676;2022-07-22T08:07:58;7.30;;;2.40;;
1649;SDS011;822;53.670;8.676;2022-07-22T08:10:25;5.97;;;2.77;;
1649;SDS011;822;53.670;8.676;2022-07-22T08:12:54;4.00;;;2.13;;
1649;SDS011;822;53.670;8.676;2022-07-22T08:15:23;3.67;;;2.20;;
1649;SDS011;822;53.670;8.676;2022-07-22T08:17:50;4.93;;;2.50;;
1649;SDS011;822;53.670;8.676;2022-07-22T08:20:17;6.33;;;2.17;;
1649;SDS011;822;53.670;8.676;2022-07-22T08:22:45;5.60;;;2.43;;
1649;SDS011;822;53.670;8.676;2022-07-22T08:25:12;3.57;;;1.90;;
1649;SDS011;822;53.670;8.676;2022-07-22T08:27:39;4.13;;;2.27;;
1649;SDS011;822;53.670;8.676;2022-07-22T08:30:08;3.53;;;2.10;;
1649;SDS011;822;53.670;8.676;2022-07-22T08:32:35;2.23;;;2.00;;
1649;SDS011;822;53.670;8.676;2022-07-22T08:35:02;5.70;;;2.60;;
1649;SDS011;822;53.670;8.676;2022-07-22T08:37:30;5.10;;;2.37;;
1649;SDS011;822;53.670;8.676;2022-07-22T08:39:57;4.60;;;2.30;;
1649;SDS011;822;53.670;8.676;2022-07-22T08:42:24;4.47;;;2.20;;
1649;SDS011;822;53.670;8.676;2022-07-22T08:44:52;5.00;;;2.60;;
1649;SDS011;822;53.670;8.676;2022-07-22T08:47:21;4.40;;;2.27;;
1649;SDS011;822;53.670;8.676;2022-07-22T08:49:48;6.20;;;2.70;;
1649;SDS011;822;53.670;8.676;2022-07-22T08:52:15;4.37;;;2.27;;
1649;SDS011;822;53.670;8.676;2022-07-22T08:54:42;5.03;;;2.50;;
1649;SDS011;822;53.670;8.676;2022-07-22T08:57:09;2.93;;;2.30;;
1649;SDS011;822;53.670;8.676;2022-07-22T08:59:48;4.43;;;2.53;;
1649;SDS011;822;53.670;8.676;2022-07-22T09:02:15;4.00;;;1.93;;
1649;SDS011;822;53.670;8.676;2022-07-22T09:07:32;2.87;;;2.20;;
1649;SDS011;822;53.670;8.676;2022-07-22T09:10:00;4.50;;;2.03;;
1649;SDS011;822;53.670;8.676;2022-07-22T09:12:28;5.63;;;2.00;;
1649;SDS011;822;53.670;8.676;2022-07-22T09:14:57;4.87;;;2.10;;
1649;SDS011;822;53.670;8.676;2022-07-22T09:17:25;3.23;;;2.23;;
1649;SDS011;822;53.670;8.676;2022-07-22T09:19:53;6.80;;;2.57;;
1649;SDS011;822;53.670;8.676;2022-07-22T09:22:35;4.57;;;2.30;;
1649;SDS011;822;53.670;8.676;2022-07-22T09:25:20;6.77;;;1.97;;
1649;SDS011;822;53.670;8.676;2022-07-22T09:27:53;2.63;;;1.60;;
1649;SDS011;822;53.670;8.676;2022-07-22T09:30:21;5.83;;;1.73;;
1649;SDS011;822;53.670;8.676;2022-07-22T09:32:51;3.70;;;2.10;;
1649;SDS011;822;53.670;8.676;2022-07-22T09:35:20;4.60;;;1.90;;
1649;SDS011;822;53.670;8.676;2022-07-22T09:37:49;3.40;;;2.13;;
1649;SDS011;822;53.670;8.676;2022-07-22T09:40:18;3.20;;;1.97;;
1649;SDS011;822;53.670;8.676;2022-07-22T09:42:47;5.33;;;2.40;;
1649;SDS011;822;53.670;8.676;2022-07-22T09:45:16;6.50;;;1.70;;
1649;SDS011;822;53.670;8.676;2022-07-22T09:47:44;4.20;;;2.00;;
1649;SDS011;822;53.670;8.676;2022-07-22T09:50:16;6.80;;;2.00;;
1649;SDS011;822;53.670;8.676;2022-07-22T09:52:47;2.80;;;1.90;;
1649;SDS011;822;53.670;8.676;2022-07-22T09:55:17;4.00;;;1.73;;
1649;SDS011;822;53.670;8.676;2022-07-22T09:57:46;4.97;;;2.10;;
1649;SDS011;822;53.670;8.676;2022-07-22T10:00:14;6.47;;;2.47;;
1649;SDS011;822;53.670;8.676;2022-07-22T10:02:45;3.67;;;2.03;;
1649;SDS011;822;53.670;8.676;2022-07-22T10:05:14;4.00;;;1.80;;
1649;SDS011;822;53.670;8.676;2022-07-22T10:07:42;5.33;;;2.30;;
1649;SDS011;822;53.670;8.676;2022-07-22T10:10:12;3.10;;;2.30;;
1649;SDS011;822;53.670;8.676;2022-07-22T10:12:40;2.63;;;2.23;;
1649;SDS011;822;53.670;8.676;2022-07-22T10:15:07;2.63;;;2.23;;
1649;SDS011;822;53.670;8.676;2022-07-22T10:17:35;4.97;;;2.13;;
1649;SDS011;822;53.670;8.676;2022-07-22T10:20:04;3.13;;;1.87;;
1649;SDS011;822;53.670;8.676;2022-07-22T10:22:45;10.30;;;2.27;;
1649;SDS011;822;53.670;8.676;2022-07-22T10:25:17;6.70;;;2.47;;
1649;SDS011;822;53.670;8.676;2022-07-22T10:27:45;3.43;;;1.87;;
1649;SDS011;822;53.670;8.676;2022-07-22T10:30:14;5.00;;;2.50;;
1649;SDS011;822;53.670;8.676;2022-07-22T10:32:42;5.00;;;2.40;;
1649;SDS011;822;53.670;8.676;2022-07-22T10:37:51;7.87;;;2.20;;
1649;SDS011;822;53.670;8.676;2022-07-22T10:40:25;3.60;;;2.43;;
1649;SDS011;822;53.670;8.676;2022-07-22T10:43:03;4.90;;;2.43;;
1649;SDS011;822;53.670;8.676;2022-07-22T10:45:40;4.13;;;2.07;;
1649;SDS011;822;53.670;8.676;2022-07-22T10:48:11;5.00;;;2.87;;
1649;SDS011;822;53.670;8.676;2022-07-22T10:50:40;4.17;;;2.23;;
1649;SDS011;822;53.670;8.676;2022-07-22T10:53:08;2.97;;;1.97;;
1649;SDS011;822;53.670;8.676;2022-07-22T10:55:37;3.13;;;2.27;;
1649;SDS011;822;53.670;8.676;2022-07-22T11:01:16;4.20;;;2.50;;
1649;SDS011;822;53.670;8.676;2022-07-22T11:03:45;5.23;;;1.90;;
1649;SDS011;822;53.670;8.676;2022-07-22T11:06:21;4.10;;;2.33;;
1649;SDS011;822;53.670;8.676;2022-07-22T11:08:54;4.60;;;2.60;;
1649;SDS011;822;53.670;8.676;2022-07-22T11:11:34;2.60;;;2.40;;
1649;SDS011;822;53.670;8.676;2022-07-22T11:14:14;3.00;;;2.23;;
1649;SDS011;822;53.670;8.676;2022-07-22T11:16:42;4.33;;;2.00;;
1649;SDS011;822;53.670;8.676;2022-07-22T11:19:09;4.93;;;2.10;;
1649;SDS011;822;53.670;8.676;2022-07-22T11:21:36;4.47;;;2.20;;
1649;SDS011;822;53.670;8.676;2022-07-22T11:24:05;9.30;;;2.47;;
1649;SDS011;822;53.670;8.676;2022-07-22T11:26:36;5.13;;;2.27;;
1649;SDS011;822;53.670;8.676;2022-07-22T11:29:06;4.30;;;2.10;;
1649;SDS011;822;53.670;8.676;2022-07-22T11:31:33;4.30;;;2.60;;
1649;SDS011;822;53.670;8.676;2022-07-22T11:34:04;4.80;;;2.10;;
1649;SDS011;822;53.670;8.676;2022-07-22T11:36:32;4.97;;;2.37;;
1649;SDS011;822;53.670;8.676;2022-07-22T11:38:59;5.40;;;2.10;;
1649;SDS011;822;53.670;8.676;2022-07-22T11:41:28;4.40;;;2.20;;
1649;SDS011;822;53.670;8.676;2022-07-22T11:43:57;3.40;;;1.90;;
1649;SDS011;822;53.670;8.676;2022-07-22T11:46:24;4.40;;;1.80;;
1649;SDS011;822;53.670;8.676;2022-07-22T11:48:51;3.23;;;2.17;;
1649;SDS011;822;53.670;8.676;2022-07-22T11:51:19;4.40;;;2.30;;
1649;SDS011;822;53.670;8.676;2022-07-22T11:53:45;4.93;;;2.87;;
1649;SDS011;822;53.670;8.676;2022-07-22T11:56:12;5.80;;;2.20;;
1649;SDS011;822;53.670;8.676;2022-07-22T11:58:41;2.33;;;1.60;;
1649;SDS011;822;53.670;8.676;2022-07-22T12:01:11;6.57;;;2.30;;
1649;SDS011;822;53.670;8.676;2022-07-22T12:03:40;7.00;;;2.13;;
1649;SDS011;822;53.670;8.676;2022-07-22T12:06:09;5.30;;;2.40;;
1649;SDS011;822;53.670;8.676;2022-07-22T12:08:40;4.10;;;1.87;;
1649;SDS011;822;53.670;8.676;2022-07-22T12:11:08;3.47;;;1.70;;
1649;SDS011;822;53.670;8.676;2022-07-22T12:13:35;3.40;;;1.93;;
1649;SDS011;822;53.670;8.676;2022-07-22T12:16:17;4.50;;;1.90;;
1649;SDS011;822;53.670;8.676;2022-07-22T12:18:50;3.60;;;1.53;;
1649;SDS011;822;53.670;8.676;2022-07-22T12:21:18;3.03;;;1.60;;
1649;SDS011;822;53.670;8.676;2022-07-22T12:23:49;4.90;;;1.67;;
1649;SDS011;822;53.670;8.676;2022-07-22T12:26:16;2.97;;;1.47;;
1649;SDS011;822;53.670;8.676;2022-07-22T12:28:43;5.87;;;1.90;;
1649;SDS011;822;53.670;8.676;2022-07-22T12:31:10;3.70;;;1.83;;
1649;SDS011;822;53.670;8.676;2022-07-22T12:33:49;5.70;;;2.03;;
1649;SDS011;822;53.670;8.676;2022-07-22T12:36:17;2.43;;;1.63;;
1649;SDS011;822;53.670;8.676;2022-07-22T12:38:44;2.40;;;1.57;;
1649;SDS011;822;53.670;8.676;2022-07-22T12:41:20;3.70;;;1.83;;
1649;SDS011;822;53.670;8.676;2022-07-22T12:43:49;2.27;;;1.97;;
1649;SDS011;822;53.670;8.676;2022-07-22T12:46:17;3.07;;;1.70;;
1649;SDS011;822;53.670;8.676;2022-07-22T12:48:50;3.30;;;1.80;;
1649;SDS011;822;53.670;8.676;2022-07-22T12:51:17;2.90;;;1.40;;
1649;SDS011;822;53.670;8.676;2022-07-22T12:53:45;4.60;;;1.83;;
1649;SDS011;822;53.670;8.676;2022-07-22T12:56:12;4.50;;;1.30;;
1649;SDS011;822;53.670;8.676;2022-07-22T12:58:39;2.40;;;1.77;;
1649;SDS011;822;53.670;8.676;2022-07-22T13:01:06;1.83;;;1.37;;
1649;SDS011;822;53.670;8.676;2022-07-22T13:03:35;4.37;;;1.70;;
1649;SDS011;822;53.670;8.676;2022-07-22T13:06:03;3.17;;;1.77;;
1649;SDS011;822;53.670;8.676;2022-07-22T13:08:32;5.00;;;1.70;;
1649;SDS011;822;53.670;8.676;2022-07-22T13:10:59;2.13;;;1.53;;
1649;SDS011;822;53.670;8.676;2022-07-22T13:13:26;6.03;;;1.57;;
1649;SDS011;822;53.670;8.676;2022-07-22T13:15:53;2.00;;;1.60;;
1649;SDS011;822;53.670;8.676;2022-07-22T13:18:19;3.87;;;1.70;;
1649;SDS011;822;53.670;8.676;2022-07-22T13:20:46;3.00;;;1.90;;
1649;SDS011;822;53.670;8.676;2022-07-22T13:23:14;2.77;;;1.63;;
1649;SDS011;822;53.670;8.676;2022-07-22T13:25:41;3.10;;;1.57;;
1649;SDS011;822;53.670;8.676;2022-07-22T13:28:09;4.33;;;1.50;;
1649;SDS011;822;53.670;8.676;2022-07-22T13:30:36;3.10;;;1.67;;
1649;SDS011;822;53.670;8.676;2022-07-22T13:33:03;3.30;;;1.93;;
1649;SDS011;822;53.670;8.676;2022-07-22T13:35:30;5.13;;;1.77;;
1649;SDS011;822;53.670;8.676;2022-07-22T13:38:02;2.10;;;1.47;;
1649;SDS011;822;53.670;8.676;2022-07-22T13:40:30;3.73;;;2.07;;
1649;SDS011;822;53.670;8.676;2022-07-22T13:42:57;5.50;;;1.80;;
1649;SDS011;822;53.670;8.676;2022-07-22T13:45:24;6.33;;;1.97;;
1649;SDS011;822;53.670;8.676;2022-07-22T13:47:51;4.60;;;1.70;;
1649;SDS011;822;53.670;8.676;2022-07-22T13:50:18;5.27;;;1.90;;
1649;SDS011;822;53.670;8.676;2022-07-22T13:52:45;3.63;;;1.80;;
1649;SDS011;822;53.670;8.676;2022-07-22T13:55:12;6.93;;;2.10;;
1649;SDS011;822;53.670;8.676;2022-07-22T13:57:44;5.07;;;2.33;;
1649;SDS011;822;53.670;8.676;2022-07-22T14:00:12;3.87;;;2.37;;
1649;SDS011;822;53.670;8.676;2022-07-22T14:02:39;4.73;;;2.17;;
1649;SDS011;822;53.670;8.676;2022-07-22T14:05:07;3.00;;;1.90;;
1649;SDS011;822;53.670;8.676;2022-07-22T14:07:34;5.63;;;2.07;;
1649;SDS011;822;53.670;8.676;2022-07-22T14:10:03;2.50;;;1.70;;
1649;SDS011;822;53.670;8.676;2022-07-22T14:12:31;3.17;;;1.70;;
1649;SDS011;822;53.670;8.676;2022-07-22T14:14:59;3.40;;;2.00;;
1649;SDS011;822;53.670;8.676;2022-07-22T14:17:26;3.77;;;1.77;;
1649;SDS011;822;53.670;8.676;2022-07-22T14:19:53;3.50;;;1.63;;
1649;SDS011;822;53.670;8.676;2022-07-22T14:22:20;6.20;;;1.77;;
1649;SDS011;822;53.670;8.676;2022-07-22T14:24:47;2.40;;;1.70;;
1649;SDS011;822;53.670;8.676;2022-07-22T14:27:14;3.77;;;1.80;;
1649;SDS011;822;53.670;8.676;2022-07-22T14:29:41;3.90;;;1.77;;
1649;SDS011;822;53.670;8.676;2022-07-22T14:32:09;5.03;;;1.83;;
1649;SDS011;822;53.670;8.676;2022-07-22T14:34:36;3.67;;;1.90;;
1649;SDS011;822;53.670;8.676;2022-07-22T14:37:03;3.67;;;1.70;;
1649;SDS011;822;53.670;8.676;2022-07-22T14:39:30;5.30;;;1.70;;
1649;SDS011;822;53.670;8.676;2022-07-22T14:41:57;3.20;;;1.53;;
1649;SDS011;822;53.670;8.676;2022-07-22T14:44:24;3.37;;;1.40;;
1649;SDS011;822;53.670;8.676;2022-07-22T14:46:50;3.70;;;1.70;;
1649;SDS011;822;53.670;8.676;2022-07-22T14:49:19;4.50;;;1.53;;
1649;SDS011;822;53.670;8.676;2022-07-22T14:51:46;2.20;;;1.60;;
1649;SDS011;822;53.670;8.676;2022-07-22T14:54:12;2.43;;;1.57;;
1649;SDS011;822;53.670;8.676;2022-07-22T14:56:39;2.33;;;1.60;;
1649;SDS011;822;53.670;8.676;2022-07-22T14:59:07;6.83;;;2.10;;
1649;SDS011;822;53.670;8.676;2022-07-22T15:01:33;2.33;;;1.67;;
1649;SDS011;822;53.670;8.676;2022-07-22T15:04:00;7.30;;;2.07;;
1649;SDS011;822;53.670;8.676;2022-07-22T15:06:28;4.20;;;1.50;;
1649;SDS011;822;53.670;8.676;2022-07-22T15:08:55;3.60;;;1.80;;
1649;SDS011;822;53.670;8.676;2022-07-22T15:11:22;2.17;;;1.70;;
1649;SDS011;822;53.670;8.676;2022-07-22T15:13:49;2.27;;;1.40;;
1649;SDS011;822;53.670;8.676;2022-07-22T15:16:19;6.03;;;1.60;;
1649;SDS011;822;53.670;8.676;2022-07-22T15:18:46;2.27;;;1.80;;
1649;SDS011;822;53.670;8.676;2022-07-22T15:21:13;3.03;;;2.00;;
1649;SDS011;822;53.670;8.676;2022-07-22T15:23:42;4.00;;;1.43;;
1649;SDS011;822;53.670;8.676;2022-07-22T15:26:09;3.97;;;1.60;;
1649;SDS011;822;53.670;8.676;2022-07-22T15:28:36;2.17;;;1.97;;
1649;SDS011;822;53.670;8.676;2022-07-22T15:31:03;4.40;;;1.60;;
1649;SDS011;822;53.670;8.676;2022-07-22T15:33:31;4.27;;;1.60;;
1649;SDS011;822;53.670;8.676;2022-07-22T15:35:58;4.33;;;1.80;;
1649;SDS011;822;53.670;8.676;2022-07-22T15:38:25;3.20;;;1.60;;
1649;SDS011;822;53.670;8.676;2022-07-22T15:40:57;2.00;;;1.67;;